Pagina principală
METAR-TAF:

METAR-TAF

Aeroporturi :

Naval Air Station Whiting Field South

Milton, Florida, Statele Unite ale Americii

Latitudine: 30-41-50N, longitudine: 087-01-12W, elevație: 54 m

Observații meteo curente

Raportul a fost făcut în urmă cu 16 de minute, la 21:56 UTC
Vânt 7 kt de la Sud/Sud-vest
Temperatură 33°C
Umiditate 49%
Presiune 1015 hPa
Vizibilitate: 16.1 km
Cer senin

METAR: KNDZ 222156Z AUTO 20007KT 10SM CLR 33/21 A2997 RMK AO2 SLP134 T03280206 PNO $

Ora: 17:12 (22:12 UTC)


TAF: lipsă

Observații și prognoze meteo pentru peste 4.000 de aeroporturi (rapoarte METAR și TAF).

Stațiile disponibile sunt reprezentate pe hartă prin puncte galbene și roșii.

Țineți indicatorul mouse-ului pe punctul dorit pentru a vedea denumirea stației.

Apoi, faceți clic pentru a vedea observațiile și prognozele meteorologice.

Pentru a schimba harta: Pentru mărire, faceți clic pe butoanele verzi cu cruce neagră; pentru micșorare, pe butonul verde cu o liniuță; pentru hărți învecinate, pe săgețile verzi.


METAR-TAF: